Buffalo, WY

11:04 AM MST on November 26, 2014 (GMT -0700)
Esponda Ranch | Change Station
CLOSE
Current Station
Personal Weather Station
Location: Buffalo, WY
Elevation: 4665 ft
Nearby Weather Stations

Elev 4665 ft 44.32 °N, 106.67 °W | Updated 13 minutes ago

Light Snow
Light Snow Mist
28.8 °F
Feels Like 24 °F
N
4.0
Wind Variable Wind from SSE
Gusts 7.0 mph

Today
High -- | Low -- °F
--% Chance of Precip.
Yesterday
High -- | Low -- °F
Precip. -- in
7:16 AM 4:31 PM
Waxing Crescent, 21% visible
Pressure 30.17 in
Visibility 5.0 miles
Clouds Mostly Cloudy 3400 ft
Overcast 4200 ft
Windchill 24 °F
Dew Point 25 °F
Humidity 86%
Rainfall 0.00 in
Snow Depth Not available.
UV 1 out of 12
Pollen .10 out of 12
Air Quality Not available.
Flu Activity Not available.
SPECI KBYG 261801Z AUTO 16009KT 5SM -SN BR BKN034 OVC042 M03/M06 A3017 RMK AO2 P0000 T10331056

More Conditions Fewer Conditions

Pressure 30.17 in
Visibility 5.0 miles
Clouds Mostly Cloudy 3400 ft
Overcast 4200 ft
Windchill 24 °F
Dew Point 25 °F
Humidity 86%
Rainfall 0.00 in
Snow Depth Not available.
UV 1 out of 12
Pollen .10 out of 12
Air Quality Not available.
Flu Activity Not available.
SPECI KBYG 261801Z AUTO 16009KT 5SM -SN BR BKN034 OVC042 M03/M06 A3017 RMK AO2 P0000 T10331056

More Conditions Fewer Conditions

10-Day Weather Forecast

Almanac

Astronomy

Nov. 26, 2014 Rise Set
Actual Time
Civil Twilight
Nautical Twilight
Astronomical Twilight
Moon
Length of Visible Light
Length of Day
Tomorrow will be .
, % of the Moon is Illuminated

Today's Extremes

State Highs State Lows

Community

WunderPhotos

Upload Photos

1,773,813 photos uploaded!

WunderBlogs® & News

Nearby

Air Quality

  Air Quality AQ Index Pollutant
Not available.

Snow Depth

Station Depth Elevation

Earthquake Activity

City Distance Mag. Time & Date
Minimum magnitude displayed is 2.5.

Coastal Water Temperatures

Place Temperature

Nearby Weather Stations